This is the latest recevied weather packets stored in our database for station/object K7CTM. If no packets are shown the sender has not sent any weather packets the latest 10 day(s).
| Time | Temp. | Humidity | Pressure | Rain* | Wind** | Luminosity | Snow |
|---|---|---|---|---|---|---|---|
| 1777878447 | 10.56° C | 45% | 1019 hPa | 0 mm | - | 0 W/m² | - |
| 1777878143 | 11.11° C | 45% | 1019 hPa | 0 mm | - | 0 W/m² | - |
| 1777877840 | 11.11° C | 43% | 1018.8 hPa | 0 mm | - | 0 W/m² | - |
| 1777877537 | 11.67° C | 42% | 1018.9 hPa | 0 mm | - | 0 W/m² | - |
| 1777877233 | 11.67° C | 43% | 1018.9 hPa | 0 mm | - | 0 W/m² | - |
| 1777876930 | 11.67° C | 42% | 1018.7 hPa | 0 mm | - | 0 W/m² | - |
| 1777876628 | 11.67° C | 43% | 1019 hPa | 0 mm | - | 0 W/m² | - |
| 1777876326 | 11.11° C | 44% | 1019 hPa | 0 mm | - | 0 W/m² | - |
| 1777876021 | 11.11° C | 45% | 1018.9 hPa | 0 mm | - | 0 W/m² | - |
| 1777875717 | 11.67° C | 44% | 1019.3 hPa | 0 mm | - | 0 W/m² | - |
| 1777875414 | 11.67° C | 43% | 1019 hPa | 0 mm | - | 0 W/m² | - |
| 1777875110 | 11.67° C | 42% | 1019 hPa | 0 mm | - | 0 W/m² | - |
| 1777874807 | 11.67° C | 42% | 1018.9 hPa | 0 mm | - | 0 W/m² | - |
| 1777874503 | 12.78° C | 41% | 1018.8 hPa | 0 mm | - | 0 W/m² | - |
| 1777874202 | 13.89° C | 36% | 1018.9 hPa | 0 mm | - | 0 W/m² | - |
| 1777873898 | 13.33° C | 37% | 1018.9 hPa | 0 mm | - | 0 W/m² | - |
| 1777873595 | 13.33° C | 38% | 1019 hPa | 0 mm | - | 0 W/m² | - |
| 1777873292 | 13.33° C | 38% | 1018.9 hPa | 0 mm | - | 0 W/m² | - |
| 1777872989 | 12.78° C | 39% | 1019 hPa | 0 mm | - | 0 W/m² | - |
| 1777872686 | 13.89° C | 36% | 1018.9 hPa | 0 mm | - | 0 W/m² | - |
| 1777872383 | 15.56° C | 32% | 1019 hPa | 0 mm | - | 0 W/m² | - |
| 1777872081 | 15° C | 33% | 1019 hPa | 0 mm | - | 0 W/m² | - |
| 1777871778 | 14.44° C | 38% | 1019 hPa | 0 mm | - | 0 W/m² | - |
| 1777871474 | 14.44° C | 33% | 1018.8 hPa | 0 mm | - | 0 W/m² | - |
| 1777871171 | 15° C | 35% | 1018.9 hPa | 0 mm | - | 0 W/m² | - |
* Rain latest hour (hover to see other rain measurements)
** Current wind speed in m/s (hover to see current wind gust speed)